Time;durP1;ratioP1;P1;durP2;ratioP2;P2;SDS_P1;SDS_P2;PMS_P1;PMS_P2;Temp;Humidity;BMP_temperature;BMP_pressure;BME280_temperature;BME280_humidity;BME280_pressure;Samples;Min_cycle;Max_cycle;Signal;HPM_P1;HPM_P2
2022/03/27 06:42:16;;;;;;;29.08;17.92;;;;;;;;;;6185826;23;20040;-85
2022/03/27 06:44:42;;;;;;;28.73;19.25;;;;;;;;;;6186794;23;20013;-83
2022/03/27 06:47:08;;;;;;;26.77;17.98;;;;;;;;;;6187850;23;20036;-87
2022/03/27 06:49:34;;;;;;;30.60;18.65;;;;;;;;;;6186301;23;20009;-84
2022/03/27 15:32:45;;;;;;;22.02;18.63;;;;;;;;;;6136846;23;20021;-88
2022/03/27 15:35:11;;;;;;;26.20;19.92;;;;;;;;;;6187364;23;20036;-88
2022/03/27 15:37:36;;;;;;;33.15;25.52;;;;;;;;;;6191726;23;20013;-90
2022/03/27 15:40:06;;;;;;;31.70;17.25;;;;;;;;;;6186139;23;20009;-89
2022/03/27 15:42:33;;;;;;;22.15;18.20;;;;;;;;;;6185718;23;20009;-88
2022/03/27 15:45:02;;;;;;;30.17;22.17;;;;;;;;;;6185881;23;20008;-86
2022/03/27 15:47:28;;;;;;;24.20;18.42;;;;;;;;;;6187308;23;20020;-87
2022/03/27 15:49:53;;;;;;;21.73;17.30;;;;;;;;;;6187211;23;20012;-88
2022/03/27 15:52:19;;;;;;;20.70;16.65;;;;;;;;;;6187259;23;20408;-87
2022/03/27 15:54:44;;;;;;;24.30;18.40;;;;;;;;;;6187068;23;20462;-87
2022/03/27 15:57:11;;;;;;;24.52;17.50;;;;;;;;;;6186900;23;20055;-88
2022/03/27 15:59:36;;;;;;;25.35;16.98;;;;;;;;;;6187101;23;20085;-88
2022/03/27 16:02:02;;;;;;;22.92;16.95;;;;;;;;;;6187540;23;20033;-88
2022/03/27 16:04:27;;;;;;;20.60;15.95;;;;;;;;;;6185396;23;20001;-88
2022/03/27 16:06:53;;;;;;;25.52;18.73;;;;;;;;;;6186989;23;20005;-88
2022/03/27 16:09:19;;;;;;;24.30;17.77;;;;;;;;;;6185283;23;20428;-89
2022/03/27 16:11:45;;;;;;;22.40;16.92;;;;;;;;;;6187037;23;20032;-89
2022/03/27 16:14:10;;;;;;;24.98;18.98;;;;;;;;;;6186955;23;20005;-88
2022/03/27 16:16:36;;;;;;;26.55;18.38;;;;;;;;;;6185149;23;20385;-88
2022/03/27 16:19:01;;;;;;;22.45;17.08;;;;;;;;;;6186748;23;20016;-88
2022/03/27 16:21:27;;;;;;;21.85;17.60;;;;;;;;;;6185316;23;20009;-88
2022/03/27 16:23:53;;;;;;;21.63;16.85;;;;;;;;;;6184963;23;20364;-87
2022/03/27 16:26:19;;;;;;;22.98;17.20;;;;;;;;;;6186786;23;20001;-87
2022/03/27 16:28:44;;;;;;;22.33;17.05;;;;;;;;;;6186532;23;20060;-87
2022/03/27 16:31:10;;;;;;;26.60;17.50;;;;;;;;;;6199122;23;20043;-86
2022/03/27 16:33:35;;;;;;;23.88;17.38;;;;;;;;;;6247028;23;20050;-87
2022/03/27 16:36:03;;;;;;;22.92;18.02;;;;;;;;;;6247315;23;20039;-86
2022/03/27 16:38:29;;;;;;;25.08;18.13;;;;;;;;;;6220149;23;20034;-86
2022/03/27 16:40:56;;;;;;;22.98;17.25;;;;;;;;;;6220087;23;20000;-85
2022/03/27 16:43:21;;;;;;;23.60;18.02;;;;;;;;;;6219424;23;20015;-85
2022/03/27 16:45:49;;;;;;;26.25;17.50;;;;;;;;;;6220512;23;20335;-86
2022/03/27 16:48:14;;;;;;;25.70;17.58;;;;;;;;;;6246774;23;20035;-86
2022/03/27 16:50:40;;;;;;;24.95;16.95;;;;;;;;;;6247061;23;20004;-86
2022/03/27 16:53:06;;;;;;;23.27;18.00;;;;;;;;;;6246868;23;20030;-86
2022/03/27 16:55:31;;;;;;;23.10;16.33;;;;;;;;;;6247088;23;20004;-86
2022/03/27 16:57:57;;;;;;;21.30;16.65;;;;;;;;;;6246812;23;20079;-86
2022/03/27 17:00:22;;;;;;;23.00;17.67;;;;;;;;;;6246402;23;20004;-86
2022/03/27 17:02:48;;;;;;;20.85;16.33;;;;;;;;;;6219649;23;20027;-86
2022/03/27 17:05:14;;;;;;;21.55;16.27;;;;;;;;;;6247047;23;20004;-86
2022/03/27 17:07:40;;;;;;;24.60;17.33;;;;;;;;;;6246855;23;20004;-86
2022/03/27 17:10:07;;;;;;;20.63;16.52;;;;;;;;;;6219664;23;20031;-86
2022/03/27 17:12:33;;;;;;;23.10;16.73;;;;;;;;;;6219874;23;20014;-86
2022/03/27 17:14:59;;;;;;;24.40;17.10;;;;;;;;;;6246765;23;20030;-86
2022/03/27 17:17:29;;;;;;;23.70;16.83;;;;;;;;;;6246896;23;20000;-85
2022/03/27 17:19:55;;;;;;;23.38;16.95;;;;;;;;;;6219867;23;20320;-84
2022/03/27 17:22:22;;;;;;;23.60;17.95;;;;;;;;;;6219812;23;20024;-85
2022/03/27 17:24:47;;;;;;;24.30;17.08;;;;;;;;;;6246763;23;20000;-85
2022/03/27 17:27:15;;;;;;;23.88;16.63;;;;;;;;;;6246838;23;20442;-84
2022/03/27 17:29:44;;;;;;;24.15;17.45;;;;;;;;;;6219556;23;20082;-85
2022/03/27 17:32:11;;;;;;;27.75;19.00;;;;;;;;;;6246750;23;20023;-85
2022/03/27 17:34:37;;;;;;;24.55;17.02;;;;;;;;;;6246590;23;20008;-86
2022/03/27 17:37:03;;;;;;;24.05;16.73;;;;;;;;;;6246280;23;20011;-87
2022/03/27 17:39:32;;;;;;;25.88;17.45;;;;;;;;;;6246493;23;20004;-87
2022/03/27 17:41:58;;;;;;;;;;;;;;;;;;6247136;23;20000;-87
2022/03/27 17:44:24;;;;;;;29.40;18.52;;;;;;;;;;6246569;23;19954;-87
2022/03/27 17:46:50;;;;;;;27.98;21.25;;;;;;;;;;6219560;23;20011;-87
2022/03/27 17:49:16;;;;;;;37.63;33.55;;;;;;;;;;6246536;23;20039;-88
2022/03/27 17:51:42;;;;;;;30.08;24.33;;;;;;;;;;6219717;23;20008;-86
2022/03/27 17:54:08;;;;;;;26.75;18.92;;;;;;;;;;6246632;23;20450;-86
2022/03/27 17:56:34;;;;;;;24.27;19.10;;;;;;;;;;6246480;23;20145;-86
2022/03/27 17:59:00;;;;;;;23.60;18.02;;;;;;;;;;6250265;23;20008;-86
2022/03/27 18:01:25;;;;;;;28.83;20.38;;;;;;;;;;6248946;23;20011;-86
2022/03/27 18:03:52;;;;;;;23.70;17.45;;;;;;;;;;6246469;23;20011;-86
2022/03/27 18:06:22;;;;;;;24.30;17.27;;;;;;;;;;6246188;23;20335;-85
2022/03/27 18:08:48;;;;;;;25.50;18.00;;;;;;;;;;6219662;23;20005;-88
2022/03/27 18:11:13;;;;;;;30.45;22.13;;;;;;;;;;6245789;23;20011;-89
2022/03/27 18:13:39;;;;;;;30.17;23.60;;;;;;;;;;6247234;23;20032;-92
2022/03/27 18:16:09;;;;;;;24.23;17.55;;;;;;;;;;6221134;23;20474;-92
2022/03/27 18:18:34;;;;;;;24.88;17.92;;;;;;;;;;6248266;23;19996;-93
2022/03/27 18:21:00;;;;;;;29.30;21.92;;;;;;;;;;6221884;23;20327;-92
2022/03/27 18:23:27;;;;;;;42.63;31.45;;;;;;;;;;6221337;23;20000;-90
2022/03/27 18:25:53;;;;;;;28.75;21.42;;;;;;;;;;6219590;23;20087;-88
2022/03/27 18:28:19;;;;;;;25.25;19.67;;;;;;;;;;6219557;23;20047;-92
2022/03/27 18:30:44;;;;;;;24.17;18.80;;;;;;;;;;6220552;23;20015;-91
2022/03/27 18:33:10;;;;;;;25.67;17.95;;;;;;;;;;6247189;23;20004;-91
2022/03/27 18:35:35;;;;;;;26.17;18.55;;;;;;;;;;6220691;23;20070;-91
2022/03/27 18:38:01;;;;;;;27.75;17.02;;;;;;;;;;6220047;23;20004;-91
2022/03/27 18:40:27;;;;;;;25.73;18.30;;;;;;;;;;6220666;23;20008;-91
2022/03/27 18:42:54;;;;;;;26.02;17.42;;;;;;;;;;6222218;23;20420;-91
2022/03/27 18:45:19;;;;;;;23.83;18.02;;;;;;;;;;6222938;23;20000;-90
2022/03/27 18:47:45;;;;;;;27.60;18.67;;;;;;;;;;6248992;23;20057;-90
2022/03/27 18:50:11;;;;;;;25.20;17.85;;;;;;;;;;6248942;23;20004;-90
2022/03/27 18:52:37;;;;;;;27.48;19.55;;;;;;;;;;6222317;23;20043;-91
2022/03/27 18:55:03;;;;;;;26.35;19.40;;;;;;;;;;6221584;23;20005;-88
2022/03/27 18:57:30;;;;;;;27.95;17.92;;;;;;;;;;6221173;23;20000;-89
2022/03/27 18:59:55;;;;;;;27.08;18.85;;;;;;;;;;6221407;23;20001;-89
2022/03/27 19:02:21;;;;;;;26.50;19.58;;;;;;;;;;6221558;23;20008;-88
2022/03/27 19:04:46;;;;;;;30.15;18.90;;;;;;;;;;6221954;23;20015;-90
2022/03/27 19:07:13;;;;;;;28.73;18.60;;;;;;;;;;6221287;23;20003;-90
2022/03/27 19:09:40;;;;;;;30.60;22.25;;;;;;;;;;6220976;23;20062;-88
2022/03/27 19:12:09;;;;;;;32.65;23.25;;;;;;;;;;6248314;23;20000;-92
2022/03/27 19:14:38;;;;;;;27.95;18.27;;;;;;;;;;6222127;23;20346;-91
2022/03/27 19:17:08;;;;;;;29.83;20.83;;;;;;;;;;6221402;23;20008;-91
2022/03/27 19:19:39;;;;;;;29.27;21.35;;;;;;;;;;6221129;23;20036;-90
2022/03/27 19:22:33;;;;;;;34.75;23.08;;;;;;;;;;6221507;23;20014;-90
2022/03/27 19:25:02;;;;;;;49.75;33.28;;;;;;;;;;6221289;23;20015;-91
2022/03/27 19:27:28;;;;;;;36.40;22.23;;;;;;;;;;6248628;23;20007;-91
2022/03/27 19:29:54;;;;;;;33.55;22.58;;;;;;;;;;6248032;23;19996;-90
2022/03/27 19:32:20;;;;;;;42.67;25.90;;;;;;;;;;6221228;23;20020;-90
2022/03/27 19:34:46;;;;;;;45.70;31.27;;;;;;;;;;6221097;23;20012;-89
2022/03/27 19:37:11;;;;;;;36.08;22.60;;;;;;;;;;6221476;23;20011;-90
2022/03/27 19:39:37;;;;;;;28.65;20.90;;;;;;;;;;6248269;23;20474;-91
2022/03/27 19:42:04;;;;;;;38.88;27.52;;;;;;;;;;6221651;23;20015;-90
2022/03/27 19:44:30;;;;;;;35.60;23.45;;;;;;;;;;6221291;23;20335;-91
2022/03/27 19:46:55;;;;;;;32.95;21.92;;;;;;;;;;6247753;23;20039;-91
2022/03/27 19:49:21;;;;;;;35.70;25.77;;;;;;;;;;6221782;23;20312;-92
2022/03/27 19:51:47;;;;;;;36.20;24.15;;;;;;;;;;6221265;23;20085;-92
2022/03/27 19:54:12;;;;;;;30.63;20.70;;;;;;;;;;6224016;23;20007;-91
2022/03/27 19:56:38;;;;;;;29.35;20.55;;;;;;;;;;6223196;23;20039;-93
2022/03/27 19:59:03;;;;;;;40.70;29.60;;;;;;;;;;6222896;23;20012;-92
2022/03/27 20:01:29;;;;;;;38.67;27.42;;;;;;;;;;6223641;23;20000;-93
2022/03/27 20:03:54;;;;;;;32.05;21.13;;;;;;;;;;6223299;23;20061;-91
2022/03/27 20:06:20;;;;;;;33.03;21.52;;;;;;;;;;6222921;23;20000;-92
2022/03/27 20:08:45;;;;;;;35.40;23.08;;;;;;;;;;6249760;23;20089;-94
2022/03/27 20:11:11;;;;;;;34.78;23.80;;;;;;;;;;6223133;23;20087;-93
2022/03/27 20:13:37;;;;;;;33.88;23.40;;;;;;;;;;6223339;23;20012;-93
2022/03/27 20:16:05;;;;;;;34.42;22.80;;;;;;;;;;6222770;23;20415;-92
2022/03/27 20:18:34;;;;;;;30.27;21.15;;;;;;;;;;6222018;23;20029;-92
2022/03/27 20:21:01;;;;;;;32.17;21.58;;;;;;;;;;6222999;23;20015;-93
2022/03/27 20:23:27;;;;;;;35.72;22.17;;;;;;;;;;6223504;23;20008;-92
2022/03/27 20:25:53;;;;;;;34.83;22.50;;;;;;;;;;6222185;23;20431;-94
2022/03/27 20:28:18;;;;;;;33.72;22.35;;;;;;;;;;6222226;23;20087;-94
2022/03/27 20:30:44;;;;;;;35.75;22.75;;;;;;;;;;6222103;23;20106;-92
2022/03/27 20:33:10;;;;;;;37.45;22.10;;;;;;;;;;6221971;23;20023;-92
2022/03/27 20:35:36;;;;;;;34.75;22.38;;;;;;;;;;6222034;23;20004;-91
2022/03/27 20:38:02;;;;;;;31.45;21.33;;;;;;;;;;6221526;23;20026;-91
2022/03/27 20:40:27;;;;;;;35.72;22.63;;;;;;;;;;6221815;23;20008;-91
2022/03/27 20:42:54;;;;;;;32.45;21.92;;;;;;;;;;6221683;23;20008;-91
2022/03/27 20:45:20;;;;;;;33.88;22.23;;;;;;;;;;6221441;23;20008;-90
2022/03/27 20:47:46;;;;;;;39.65;24.13;;;;;;;;;;6221167;23;20494;-92
2022/03/27 20:50:12;;;;;;;36.03;23.38;;;;;;;;;;6247997;23;20038;-91
2022/03/27 20:52:37;;;;;;;33.75;22.67;;;;;;;;;;6247587;23;20350;-91
2022/03/27 20:55:04;;;;;;;37.50;22.92;;;;;;;;;;6247614;23;20031;-91
2022/03/27 20:57:29;;;;;;;36.53;22.92;;;;;;;;;;6220649;23;20014;-90
2022/03/27 20:59:55;;;;;;;34.83;23.88;;;;;;;;;;6220827;23;20398;-91
2022/03/27 21:02:20;;;;;;;34.42;23.63;;;;;;;;;;6220597;23;19996;-90
2022/03/27 21:04:46;;;;;;;35.60;23.40;;;;;;;;;;6247540;23;20004;-91
2022/03/27 21:07:11;;;;;;;34.10;23.15;;;;;;;;;;6220118;23;20038;-91
2022/03/27 21:09:37;;;;;;;36.50;22.80;;;;;;;;;;6220668;23;20019;-90
2022/03/27 21:12:03;;;;;;;37.50;24.65;;;;;;;;;;6220293;23;20328;-90
2022/03/27 21:14:28;;;;;;;38.13;23.25;;;;;;;;;;6220415;23;20327;-90
2022/03/27 21:16:55;;;;;;;34.97;22.58;;;;;;;;;;6220320;23;20015;-90
2022/03/27 21:19:24;;;;;;;39.58;23.65;;;;;;;;;;6247342;23;20004;-91
2022/03/27 21:21:50;;;;;;;36.10;23.80;;;;;;;;;;6220805;23;20050;-91
2022/03/27 21:24:16;;;;;;;42.15;25.00;;;;;;;;;;6220848;23;20087;-90
2022/03/27 21:26:42;;;;;;;42.67;26.27;;;;;;;;;;6220276;23;20086;-90
2022/03/27 21:29:10;;;;;;;43.53;25.20;;;;;;;;;;6247414;23;20004;-90
2022/03/27 21:31:36;;;;;;;36.80;23.88;;;;;;;;;;6246507;23;20035;-91
2022/03/27 21:34:01;;;;;;;43.53;26.90;;;;;;;;;;6246764;23;20001;-89
2022/03/27 21:36:26;;;;;;;45.30;27.70;;;;;;;;;;6246771;23;20483;-89
2022/03/27 21:38:52;;;;;;;39.92;25.83;;;;;;;;;;6246621;23;20069;-88
2022/03/27 21:41:18;;;;;;;40.38;26.50;;;;;;;;;;6219857;23;20042;-89
2022/03/27 21:43:44;;;;;;;48.60;27.60;;;;;;;;;;6219885;23;20332;-89
2022/03/27 21:46:10;;;;;;;44.67;27.85;;;;;;;;;;6219951;23;20083;-89
2022/03/27 21:48:37;;;;;;;44.55;29.30;;;;;;;;;;6246404;23;20028;-89
2022/03/27 21:51:07;;;;;;;45.15;28.88;;;;;;;;;;6219556;23;20008;-89
2022/03/27 21:53:33;;;;;;;53.00;31.38;;;;;;;;;;6219788;23;20008;-89
2022/03/27 21:55:58;;;;;;;46.63;29.85;;;;;;;;;;6246502;23;20059;-89
2022/03/27 21:58:24;;;;;;;50.67;30.90;;;;;;;;;;6219678;23;20039;-88
2022/03/27 22:00:49;;;;;;;47.13;29.75;;;;;;;;;;6219659;23;20004;-89
2022/03/27 22:03:17;;;;;;;46.63;28.80;;;;;;;;;;6246722;23;20011;-89
2022/03/27 22:05:43;;;;;;;47.03;30.15;;;;;;;;;;6219894;23;20079;-89
2022/03/27 22:08:08;;;;;;;43.53;28.30;;;;;;;;;;6246530;23;19999;-89
2022/03/27 22:10:38;;;;;;;44.53;28.50;;;;;;;;;;6219780;23;20008;-89
2022/03/27 22:13:03;;;;;;;44.20;28.75;;;;;;;;;;6219745;23;20015;-89
2022/03/27 22:15:29;;;;;;;46.80;30.35;;;;;;;;;;6220458;23;20008;-90
2022/03/27 22:17:55;;;;;;;46.40;30.23;;;;;;;;;;6248418;23;20031;-89
2022/03/27 22:20:20;;;;;;;48.45;29.77;;;;;;;;;;6221649;23;20000;-89
2022/03/27 22:22:46;;;;;;;45.13;30.25;;;;;;;;;;6221666;23;20011;-89
2022/03/27 22:25:11;;;;;;;49.17;29.50;;;;;;;;;;6221590;23;20004;-89
